createdAt,value
2023-04-16T00:02:03.890Z,55.00
2023-04-16T00:04:31.259Z,50.75
2023-04-16T00:06:58.142Z,34.75
2023-04-16T00:09:25.066Z,30.00
2023-04-16T00:11:53.246Z,35.50
2023-04-16T00:14:20.331Z,46.25
2023-04-16T00:16:47.242Z,37.50
2023-04-16T00:19:14.256Z,32.50
2023-04-16T00:21:41.283Z,44.75
2023-04-16T00:24:08.385Z,37.50
2023-04-16T00:26:35.257Z,48.50
2023-04-16T00:29:02.499Z,52.75
2023-04-16T00:31:31.851Z,46.00
2023-04-16T00:33:59.286Z,40.75
2023-04-16T00:36:28.089Z,28.75
2023-04-16T00:38:56.454Z,34.25
2023-04-16T00:41:23.753Z,38.75
2023-04-16T00:43:51.817Z,34.25
2023-04-16T00:46:23.430Z,36.00
2023-04-16T00:48:52.276Z,39.25
2023-04-16T00:51:21.449Z,39.25
2023-04-16T00:53:50.474Z,46.75
2023-04-16T00:56:18.118Z,54.75
2023-04-16T00:58:45.230Z,42.00
2023-04-16T01:01:14.404Z,46.25
2023-04-16T01:03:45.913Z,51.25
2023-04-16T01:06:13.645Z,46.25
2023-04-16T01:08:40.817Z,49.25
2023-04-16T01:11:08.033Z,48.75
2023-04-16T01:13:39.362Z,51.50
2023-04-16T01:16:08.272Z,44.00
2023-04-16T01:18:35.823Z,43.50
2023-04-16T01:21:03.997Z,39.50
2023-04-16T01:23:31.368Z,49.00
2023-04-16T01:25:58.313Z,34.25
2023-04-16T01:28:25.421Z,38.75
2023-04-16T01:30:52.410Z,38.50
2023-04-16T01:33:35.891Z,34.25
2023-04-16T01:36:03.006Z,32.25
2023-04-16T01:38:29.933Z,33.00
2023-04-16T01:41:00.005Z,39.25
2023-04-16T01:43:26.952Z,42.75
2023-04-16T01:46:11.567Z,47.50
2023-04-16T01:48:38.608Z,47.75
2023-04-16T01:51:05.832Z,44.50
2023-04-16T01:53:32.736Z,29.25
2023-04-16T01:55:59.800Z,26.75
2023-04-16T01:58:29.747Z,27.00
2023-04-16T02:00:56.897Z,20.50
2023-04-16T02:03:25.011Z,23.50
2023-04-16T02:05:53.077Z,24.00
2023-04-16T02:08:20.001Z,26.00
2023-04-16T02:10:47.913Z,19.00
2023-04-16T02:13:15.887Z,23.25
2023-04-16T02:15:49.996Z,25.50
2023-04-16T02:18:22.749Z,21.75
2023-04-16T02:20:50.010Z,27.00
2023-04-16T02:23:17.829Z,27.00
2023-04-16T02:25:47.343Z,22.25
2023-04-16T02:28:17.055Z,19.00
2023-04-16T02:30:46.088Z,13.00
2023-04-16T02:33:15.367Z,13.75
2023-04-16T02:35:53.267Z,13.50
2023-04-16T02:38:20.406Z,38.75
2023-04-16T02:40:47.254Z,33.75
2023-04-16T02:43:15.626Z,40.75
2023-04-16T02:45:42.613Z,41.75
2023-04-16T02:48:10.068Z,48.75
2023-04-16T02:50:37.019Z,40.25
2023-04-16T02:53:04.411Z,39.00
2023-04-16T02:55:31.273Z,32.00
2023-04-16T02:57:58.177Z,35.75
2023-04-16T03:00:25.073Z,39.50
2023-04-16T03:02:52.055Z,40.00
2023-04-16T03:05:19.200Z,40.00
2023-04-16T03:07:46.871Z,36.00
2023-04-16T03:10:14.967Z,37.00
2023-04-16T03:12:41.931Z,38.25
2023-04-16T03:15:09.283Z,40.25
2023-04-16T03:17:36.366Z,45.75
2023-04-16T03:20:04.246Z,40.25
2023-04-16T03:22:31.788Z,39.75
2023-04-16T03:24:58.660Z,28.50
2023-04-16T03:27:25.691Z,39.00
2023-04-16T03:29:52.988Z,53.00
2023-04-16T03:32:19.930Z,26.25
2023-04-16T03:34:46.909Z,33.00
2023-04-16T03:37:13.832Z,35.75
2023-04-16T03:39:40.957Z,43.75
2023-04-16T03:42:09.249Z,33.75
2023-04-16T03:44:36.295Z,21.75
2023-04-16T03:47:03.245Z,15.50
2023-04-16T03:49:30.292Z,18.25
2023-04-16T03:51:58.224Z,9.50
2023-04-16T03:54:26.168Z,8.00
2023-04-16T03:57:03.410Z,13.00
2023-04-16T03:59:30.495Z,14.00
2023-04-16T04:01:57.558Z,14.00
2023-04-16T04:04:24.628Z,12.00
2023-04-16T04:06:51.543Z,8.75
2023-04-16T04:09:18.508Z,7.75
2023-04-16T04:11:45.634Z,25.00
2023-04-16T04:14:12.559Z,22.50
2023-04-16T04:16:39.472Z,21.25
2023-04-16T04:19:06.466Z,22.75
2023-04-16T04:21:33.358Z,25.25
2023-04-16T04:24:00.257Z,33.50
2023-04-16T04:26:29.558Z,40.50
2023-04-16T04:28:57.067Z,19.50
2023-04-16T04:31:24.042Z,13.75
2023-04-16T04:33:51.114Z,15.50
2023-04-16T04:36:18.129Z,19.50
2023-04-16T04:38:45.098Z,26.50
2023-04-16T04:41:11.965Z,29.50
2023-04-16T04:43:39.311Z,32.25
2023-04-16T04:46:06.637Z,29.50
2023-04-16T04:48:33.605Z,31.50
2023-04-16T04:51:01.237Z,35.75
2023-04-16T04:53:29.175Z,30.75
2023-04-16T04:55:58.675Z,26.50
2023-04-16T04:58:33.047Z,39.00
2023-04-16T05:00:59.986Z,34.75
2023-04-16T05:03:27.008Z,25.00
2023-04-16T05:05:53.983Z,22.00
2023-04-16T05:08:21.180Z,21.00
2023-04-16T05:10:48.239Z,28.00
2023-04-16T05:13:15.209Z,29.75
2023-04-16T05:15:42.027Z,63.75
2023-04-16T05:18:08.916Z,49.50
2023-04-16T05:20:37.924Z,59.75
2023-04-16T05:23:04.844Z,104.75
2023-04-16T05:25:31.786Z,71.75
2023-04-16T05:27:58.740Z,63.25
2023-04-16T05:30:25.611Z,60.25
2023-04-16T05:32:52.475Z,63.75
2023-04-16T05:35:19.445Z,56.75
2023-04-16T05:37:46.356Z,54.75
2023-04-16T05:40:14.444Z,53.25
2023-04-16T05:42:41.544Z,57.75
2023-04-16T05:45:08.939Z,56.50
2023-04-16T05:47:35.917Z,70.00
2023-04-16T05:50:02.967Z,82.50
2023-04-16T05:52:29.760Z,62.50
2023-04-16T05:54:56.650Z,56.25
2023-04-16T05:57:23.535Z,63.75
2023-04-16T05:59:50.464Z,61.75
2023-04-16T06:02:17.425Z,72.00
2023-04-16T06:04:44.390Z,65.25
2023-04-16T06:07:11.200Z,68.00
2023-04-16T06:09:38.200Z,62.50
2023-04-16T06:12:05.558Z,73.75
2023-04-16T06:14:32.495Z,70.75
2023-04-16T06:16:59.394Z,70.50
2023-04-16T06:19:26.310Z,68.00
2023-04-16T06:21:53.527Z,75.00
2023-04-16T06:24:20.789Z,69.00
2023-04-16T06:26:47.601Z,66.25
2023-04-16T06:29:14.472Z,64.25
2023-04-16T06:31:41.721Z,63.00
2023-04-16T06:34:09.356Z,70.00
2023-04-16T06:36:37.670Z,62.50
2023-04-16T06:39:05.059Z,59.25
2023-04-16T06:41:32.116Z,72.50
2023-04-16T06:43:59.004Z,71.00
2023-04-16T06:46:26.082Z,65.00
2023-04-16T06:48:52.906Z,69.25
2023-04-16T06:51:19.894Z,70.50
2023-04-16T06:53:46.738Z,235.00
2023-04-16T06:56:13.569Z,76.50
2023-04-16T06:58:40.511Z,83.25
2023-04-16T07:01:07.530Z,90.25
2023-04-16T07:03:34.729Z,67.75
2023-04-16T07:06:01.820Z,58.75
2023-04-16T07:08:28.708Z,60.00
2023-04-16T07:10:55.714Z,48.75
2023-04-16T07:13:22.566Z,58.00
2023-04-16T07:15:49.434Z,57.50
2023-04-16T07:18:16.868Z,55.75
2023-04-16T07:20:43.780Z,60.75
2023-04-16T07:23:10.815Z,75.00
2023-04-16T07:25:37.748Z,61.00
2023-04-16T07:28:04.712Z,57.50
2023-04-16T07:30:34.351Z,40.75
2023-04-16T07:33:02.964Z,17.00
2023-04-16T07:35:30.881Z,69.00
2023-04-16T07:37:57.742Z,73.50
2023-04-16T07:40:24.733Z,71.50
2023-04-16T07:42:51.749Z,74.00
2023-04-16T07:45:19.352Z,74.25
2023-04-16T07:47:46.294Z,69.25
2023-04-16T07:50:13.516Z,52.75
2023-04-16T07:52:42.467Z,58.50
2023-04-16T07:55:09.636Z,58.25
2023-04-16T07:57:36.794Z,56.00
2023-04-16T08:00:07.108Z,63.75
2023-04-16T08:02:44.596Z,63.00
2023-04-16T08:05:12.625Z,70.00
2023-04-16T08:07:39.497Z,56.25
2023-04-16T08:10:07.054Z,38.50
2023-04-16T08:12:35.931Z,50.67
2023-04-16T08:15:02.910Z,41.67
2023-04-16T08:17:30.147Z,34.67
2023-04-16T08:19:57.229Z,31.67
2023-04-16T08:22:24.144Z,35.33
2023-04-16T08:24:51.048Z,36.00
2023-04-16T08:27:19.913Z,29.00
2023-04-16T08:29:48.019Z,26.33
2023-04-16T08:32:14.921Z,23.67
2023-04-16T08:34:42.223Z,28.67
2023-04-16T08:37:09.491Z,25.33
2023-04-16T08:39:36.719Z,27.67
2023-04-16T08:42:11.274Z,38.00
2023-04-16T08:44:49.071Z,36.67
2023-04-16T08:47:16.538Z,25.67
2023-04-16T08:49:46.323Z,37.67
2023-04-16T08:52:20.419Z,25.33
2023-04-16T08:54:57.415Z,36.00
2023-04-16T08:57:30.142Z,30.67
2023-04-16T08:59:58.529Z,30.67
2023-04-16T09:02:27.018Z,30.67
2023-04-16T09:04:55.009Z,18.50
2023-04-16T09:07:22.423Z,27.33
2023-04-16T09:09:51.796Z,34.67
2023-04-16T09:12:19.308Z,20.33
2023-04-16T09:14:50.523Z,19.25
2023-04-16T09:17:18.814Z,16.00
2023-04-16T09:19:46.499Z,13.25
2023-04-16T09:22:13.535Z,5.25
2023-04-16T09:24:41.962Z,11.00
2023-04-16T09:27:09.190Z,18.50
2023-04-16T09:29:39.025Z,16.50
2023-04-16T09:32:12.461Z,17.25
2023-04-16T09:35:02.633Z,22.00
2023-04-16T09:37:30.876Z,31.00
2023-04-16T09:40:03.572Z,48.67
2023-04-16T09:42:32.348Z,28.00
2023-04-16T09:45:01.975Z,25.33
2023-04-16T09:47:44.698Z,28.33
2023-04-16T09:50:18.235Z,21.67
2023-04-16T09:52:51.326Z,24.67
2023-04-16T09:55:23.797Z,28.67
2023-04-16T09:57:59.959Z,22.33
2023-04-16T10:00:28.793Z,26.33
2023-04-16T10:03:07.939Z,19.33
2023-04-16T10:05:35.176Z,28.67
2023-04-16T10:08:02.328Z,31.00
2023-04-16T10:10:29.858Z,27.33
2023-04-16T10:12:58.062Z,23.00
2023-04-16T10:15:25.760Z,13.25
2023-04-16T10:17:54.267Z,13.00
2023-04-16T10:20:22.722Z,17.75
2023-04-16T10:22:50.023Z,19.50
2023-04-16T10:25:18.448Z,17.75
2023-04-16T10:27:46.020Z,17.00
2023-04-16T10:30:15.673Z,19.00
2023-04-16T10:32:43.214Z,10.00
2023-04-16T10:35:14.926Z,14.50
2023-04-16T10:37:43.272Z,14.50
2023-04-16T10:40:30.436Z,20.33
2023-04-16T10:42:58.618Z,14.25
2023-04-16T10:45:38.327Z,10.25
2023-04-16T10:48:10.025Z,21.33
2023-04-16T10:50:37.731Z,10.33
2023-04-16T10:53:21.267Z,9.00
2023-04-16T10:55:58.973Z,12.33
2023-04-16T10:58:29.959Z,8.67
2023-04-16T11:01:00.644Z,20.33
2023-04-16T11:03:32.301Z,20.00
2023-04-16T11:06:24.337Z,16.00
2023-04-16T11:08:55.057Z,15.33
2023-04-16T11:11:22.539Z,8.67
2023-04-16T11:13:49.664Z,20.00
2023-04-16T11:16:17.323Z,17.33
2023-04-16T11:18:51.083Z,25.67
2023-04-16T11:21:19.485Z,30.67
2023-04-16T11:23:50.922Z,13.33
2023-04-16T11:26:29.277Z,17.00
2023-04-16T11:28:57.152Z,17.67
2023-04-16T11:31:24.893Z,19.67
2023-04-16T11:33:51.929Z,12.00
2023-04-16T11:36:19.016Z,20.00
2023-04-16T11:38:47.000Z,22.00
2023-04-16T11:41:19.926Z,41.67
2023-04-16T11:43:46.810Z,34.67
2023-04-16T11:46:24.575Z,31.33
2023-04-16T11:48:55.648Z,25.67
2023-04-16T11:51:23.715Z,33.33
2023-04-16T11:53:55.016Z,48.00
2023-04-16T11:56:29.585Z,38.00
2023-04-16T11:59:12.691Z,30.00
2023-04-16T12:01:41.604Z,52.00
2023-04-16T12:04:09.453Z,46.75
2023-04-16T12:06:36.749Z,51.75
2023-04-16T12:09:23.926Z,32.33
2023-04-16T12:11:50.895Z,48.50
2023-04-16T12:14:17.862Z,40.00
2023-04-16T12:16:44.954Z,29.33
2023-04-16T12:19:13.423Z,23.67
2023-04-16T12:21:41.698Z,11.33
2023-04-16T12:24:10.955Z,15.33
2023-04-16T12:26:48.931Z,9.00
2023-04-16T12:29:23.320Z,19.00
2023-04-16T12:31:51.609Z,30.00
2023-04-16T12:34:20.007Z,10.00
2023-04-16T12:36:48.611Z,18.00
2023-04-16T12:39:16.576Z,16.00
2023-04-16T12:41:44.939Z,27.00
2023-04-16T12:44:18.010Z,26.33
2023-04-16T12:46:44.964Z,36.00
2023-04-16T12:49:12.204Z,59.00
2023-04-16T12:51:39.329Z,49.00
2023-04-16T12:54:09.897Z,38.33
2023-04-16T12:56:36.868Z,26.00
2023-04-16T12:59:03.947Z,51.33
2023-04-16T13:01:31.041Z,37.67
2023-04-16T13:03:58.185Z,36.67
2023-04-16T13:06:26.339Z,30.00
2023-04-16T13:08:53.187Z,55.33
2023-04-16T13:11:20.560Z,24.33
2023-04-16T13:13:47.469Z,18.00
2023-04-16T13:16:14.475Z,19.33
2023-04-16T13:18:41.614Z,19.67
2023-04-16T13:21:08.648Z,9.33
2023-04-16T13:23:35.823Z,14.75
2023-04-16T13:26:02.774Z,15.00
2023-04-16T13:28:29.642Z,12.00
2023-04-16T13:30:56.627Z,17.00
2023-04-16T13:33:23.895Z,21.67
2023-04-16T13:35:50.968Z,14.25
2023-04-16T13:38:18.227Z,10.75
2023-04-16T13:40:45.217Z,8.75
2023-04-16T13:43:13.760Z,11.25
2023-04-16T13:45:40.964Z,9.50
2023-04-16T13:48:07.908Z,8.00
2023-04-16T13:50:35.652Z,7.50
2023-04-16T13:53:02.496Z,11.50
2023-04-16T13:55:31.965Z,13.00
2023-04-16T13:57:58.958Z,8.50
2023-04-16T14:00:27.386Z,4.00
2023-04-16T14:02:54.450Z,10.25
2023-04-16T14:05:24.123Z,17.00
2023-04-16T14:07:52.752Z,13.25
2023-04-16T14:10:19.830Z,9.50
2023-04-16T14:12:46.795Z,12.00
2023-04-16T14:15:14.761Z,23.67
2023-04-16T14:17:44.669Z,31.67
2023-04-16T14:20:13.796Z,32.67
2023-04-16T14:22:42.544Z,31.00
2023-04-16T14:25:09.710Z,40.33
2023-04-16T14:27:36.666Z,42.33
2023-04-16T14:30:04.700Z,48.67
2023-04-16T14:32:31.641Z,21.00
2023-04-16T14:34:58.633Z,33.67
2023-04-16T14:37:26.326Z,39.00
2023-04-16T14:39:54.135Z,31.67
2023-04-16T14:42:21.067Z,39.00
2023-04-16T14:44:48.216Z,33.33
2023-04-16T14:47:15.145Z,21.33
2023-04-16T14:49:41.994Z,22.00
2023-04-16T14:52:08.933Z,12.00
2023-04-16T14:54:36.286Z,22.33
2023-04-16T14:57:03.558Z,18.33
2023-04-16T14:59:31.140Z,12.33
2023-04-16T15:02:00.447Z,15.67
2023-04-16T15:04:27.814Z,17.33
2023-04-16T15:06:58.854Z,9.33
2023-04-16T15:09:28.447Z,11.33
2023-04-16T15:11:55.433Z,13.67
2023-04-16T15:14:22.431Z,9.67
2023-04-16T15:16:49.776Z,20.67
2023-04-16T15:19:16.711Z,28.33
2023-04-16T15:21:44.847Z,27.33
2023-04-16T15:24:13.120Z,30.67
2023-04-16T15:26:41.383Z,29.00
2023-04-16T15:29:08.272Z,16.67
2023-04-16T15:31:35.147Z,25.00
2023-04-16T15:34:02.146Z,26.33
2023-04-16T15:36:29.011Z,23.33
2023-04-16T15:38:55.968Z,19.33
2023-04-16T15:41:23.214Z,19.33
2023-04-16T15:43:50.451Z,17.33
2023-04-16T15:46:17.390Z,17.67
2023-04-16T15:48:44.493Z,15.67
2023-04-16T15:51:11.958Z,38.67
2023-04-16T15:53:39.069Z,16.33
2023-04-16T15:56:06.250Z,17.67
2023-04-16T15:58:33.176Z,23.67
2023-04-16T16:01:00.026Z,58.00
2023-04-16T16:03:27.493Z,22.00
2023-04-16T16:05:54.454Z,39.67
2023-04-16T16:08:21.441Z,40.67
2023-04-16T16:10:48.792Z,43.00
2023-04-16T16:13:18.252Z,51.75
2023-04-16T16:15:45.497Z,51.00
2023-04-16T16:18:12.369Z,39.33
2023-04-16T16:20:40.563Z,42.33
2023-04-16T16:23:07.821Z,41.25
2023-04-16T16:25:34.989Z,28.00
2023-04-16T16:28:04.261Z,37.00
2023-04-16T16:30:32.740Z,45.00
2023-04-16T16:32:59.724Z,57.75
2023-04-16T16:35:26.805Z,59.50
2023-04-16T16:37:57.378Z,55.75
2023-04-16T16:40:24.500Z,48.25
2023-04-16T16:42:51.483Z,44.75
2023-04-16T16:45:18.617Z,43.33
2023-04-16T16:47:45.547Z,40.67
2023-04-16T16:50:12.714Z,56.00
2023-04-16T16:52:39.581Z,59.50
2023-04-16T16:55:10.911Z,63.75
2023-04-16T16:57:39.046Z,76.25
2023-04-16T17:00:16.319Z,68.50
2023-04-16T17:02:43.731Z,52.00
2023-04-16T17:05:11.106Z,54.00
2023-04-16T17:07:38.531Z,54.00
2023-04-16T17:10:06.996Z,54.50
2023-04-16T17:12:34.039Z,61.00
2023-04-16T17:15:01.617Z,68.75
2023-04-16T17:17:29.252Z,53.75
2023-04-16T17:19:56.205Z,53.25
2023-04-16T17:22:23.096Z,59.00
2023-04-16T17:24:49.929Z,65.00
2023-04-16T17:27:16.813Z,78.00
2023-04-16T17:29:45.405Z,47.50
2023-04-16T17:32:12.388Z,81.75
2023-04-16T17:34:39.245Z,99.00
2023-04-16T17:37:06.130Z,150.25
2023-04-16T17:39:33.100Z,143.00
2023-04-16T17:42:01.341Z,120.25
2023-04-16T17:44:28.282Z,84.25
2023-04-16T17:46:55.279Z,59.75
2023-04-16T17:49:22.163Z,63.25
2023-04-16T17:51:49.275Z,87.75
2023-04-16T17:54:16.227Z,76.25
2023-04-16T17:56:43.281Z,76.25
2023-04-16T17:59:10.703Z,66.00
2023-04-16T18:01:37.812Z,78.50
2023-04-16T18:04:05.053Z,88.50
2023-04-16T18:06:32.375Z,93.50
2023-04-16T18:08:59.278Z,94.50
2023-04-16T18:11:28.013Z,103.25
2023-04-16T18:13:55.968Z,84.75
2023-04-16T18:16:23.035Z,77.00
2023-04-16T18:18:50.000Z,106.00
2023-04-16T18:21:16.881Z,110.75
2023-04-16T18:23:43.755Z,101.00
2023-04-16T18:26:11.268Z,99.25
2023-04-16T18:28:39.289Z,79.75
2023-04-16T18:31:07.813Z,84.00
2023-04-16T18:33:54.074Z,77.75
2023-04-16T18:36:21.757Z,254.50
2023-04-16T18:38:59.995Z,205.00
2023-04-16T18:41:28.438Z,195.25
2023-04-16T18:43:55.456Z,176.00
2023-04-16T18:46:22.388Z,193.00
2023-04-16T18:48:49.370Z,188.25
2023-04-16T18:51:16.827Z,136.50
2023-04-16T18:53:45.705Z,168.75
2023-04-16T18:56:13.032Z,79.25
2023-04-16T18:58:40.089Z,143.75
2023-04-16T19:01:11.312Z,121.00
2023-04-16T19:03:38.858Z,94.00
2023-04-16T19:06:06.630Z,91.75
2023-04-16T19:08:33.605Z,81.50
2023-04-16T19:11:01.584Z,81.75
2023-04-16T19:13:30.395Z,62.50
2023-04-16T19:16:01.845Z,80.50
2023-04-16T19:18:28.824Z,74.00
2023-04-16T19:21:01.096Z,81.75
2023-04-16T19:23:29.436Z,59.00
2023-04-16T19:25:57.084Z,65.50
2023-04-16T19:28:26.558Z,72.25
2023-04-16T19:30:54.123Z,70.50
2023-04-16T19:33:21.248Z,75.25
2023-04-16T19:35:48.245Z,60.50
2023-04-16T19:38:15.675Z,73.75
2023-04-16T19:40:46.864Z,71.75
2023-04-16T19:43:15.141Z,70.75
2023-04-16T19:45:46.933Z,66.50
2023-04-16T19:48:15.838Z,67.00
2023-04-16T19:50:43.135Z,59.50
2023-04-16T19:53:10.835Z,59.50
2023-04-16T19:55:41.372Z,62.25
2023-04-16T19:58:08.967Z,66.00
2023-04-16T20:00:41.839Z,74.00
2023-04-16T20:03:09.375Z,83.25
2023-04-16T20:05:37.023Z,81.00
2023-04-16T20:08:04.025Z,78.25
2023-04-16T20:10:31.605Z,73.50
2023-04-16T20:12:58.704Z,72.75
2023-04-16T20:15:25.872Z,84.25
2023-04-16T20:17:53.433Z,79.50
2023-04-16T20:20:23.674Z,90.50
2023-04-16T20:22:51.325Z,78.00
2023-04-16T20:25:22.643Z,74.25
2023-04-16T20:27:49.586Z,78.50
2023-04-16T20:30:16.450Z,85.00
2023-04-16T20:32:43.412Z,66.50
2023-04-16T20:35:11.640Z,64.75
2023-04-16T20:37:39.250Z,66.25
2023-04-16T20:40:08.859Z,68.00
2023-04-16T20:42:35.869Z,62.25
2023-04-16T20:45:02.815Z,67.50
2023-04-16T20:47:31.071Z,65.00
2023-04-16T20:49:58.309Z,61.25
2023-04-16T20:52:25.479Z,59.50
2023-04-16T20:54:53.570Z,64.75
2023-04-16T20:57:21.730Z,68.50
2023-04-16T20:59:50.728Z,75.50
2023-04-16T21:02:17.838Z,70.00
2023-04-16T21:04:45.221Z,67.25
2023-04-16T21:07:12.292Z,66.25
2023-04-16T21:09:39.314Z,69.50
2023-04-16T21:12:07.238Z,80.25
2023-04-16T21:14:34.225Z,78.25
2023-04-16T21:17:01.207Z,61.50
2023-04-16T21:19:28.129Z,66.50
2023-04-16T21:21:56.478Z,63.75
2023-04-16T21:24:23.436Z,66.00
2023-04-16T21:26:50.530Z,63.00
2023-04-16T21:29:18.779Z,64.00
2023-04-16T21:31:46.038Z,66.00
2023-04-16T21:34:12.918Z,65.75
2023-04-16T21:36:39.964Z,75.50
2023-04-16T21:39:06.905Z,72.00
2023-04-16T21:41:33.986Z,66.00
2023-04-16T21:44:01.181Z,79.00
2023-04-16T21:46:28.266Z,45.75
2023-04-16T21:48:55.106Z,68.50
2023-04-16T21:51:29.214Z,66.50
2023-04-16T21:53:57.054Z,66.25
2023-04-16T21:56:25.080Z,78.00
2023-04-16T21:58:51.995Z,75.00
2023-04-16T22:01:18.985Z,76.00
2023-04-16T22:03:50.549Z,58.00
2023-04-16T22:06:18.014Z,45.75
2023-04-16T22:08:44.883Z,57.00
2023-04-16T22:11:12.169Z,48.25
2023-04-16T22:13:42.135Z,52.25
2023-04-16T22:16:11.586Z,48.50
2023-04-16T22:18:38.889Z,53.00
2023-04-16T22:21:05.838Z,42.50
2023-04-16T22:23:32.850Z,48.00
2023-04-16T22:25:59.714Z,40.75
2023-04-16T22:28:27.285Z,48.75
2023-04-16T22:30:54.176Z,58.75
2023-04-16T22:33:21.317Z,60.25
2023-04-16T22:35:48.330Z,61.00
2023-04-16T22:38:16.535Z,55.00
2023-04-16T22:40:43.466Z,60.75
2023-04-16T22:43:10.472Z,64.75
2023-04-16T22:45:37.624Z,66.25
2023-04-16T22:48:04.696Z,57.50
2023-04-16T22:50:33.082Z,53.00
2023-04-16T22:53:00.200Z,49.00
2023-04-16T22:55:27.237Z,49.25
2023-04-16T22:57:54.034Z,43.75
2023-04-16T23:00:21.248Z,46.00
2023-04-16T23:02:48.231Z,43.75
2023-04-16T23:05:15.168Z,43.50
2023-04-16T23:07:42.035Z,44.50
2023-04-16T23:10:09.160Z,36.25
2023-04-16T23:12:38.905Z,39.25
2023-04-16T23:15:07.650Z,37.50
2023-04-16T23:17:35.168Z,31.25
2023-04-16T23:20:02.494Z,34.00
2023-04-16T23:22:31.018Z,36.00
2023-04-16T23:24:57.849Z,35.50
2023-04-16T23:27:24.726Z,44.00
2023-04-16T23:29:51.637Z,52.50
2023-04-16T23:32:18.555Z,46.25
2023-04-16T23:34:45.753Z,45.25
2023-04-16T23:37:12.703Z,46.00
2023-04-16T23:39:39.641Z,45.00
2023-04-16T23:42:06.629Z,45.75
2023-04-16T23:44:33.598Z,43.25
2023-04-16T23:47:01.007Z,45.00
2023-04-16T23:49:28.118Z,48.25
2023-04-16T23:51:55.343Z,55.75
2023-04-16T23:54:22.285Z,77.00
2023-04-16T23:56:49.372Z,49.50
2023-04-16T23:59:16.933Z,39.50
